Time;durP1;ratioP1;P1;durP2;ratioP2;P2;SDS_P1;SDS_P2;PMS_P1;PMS_P2;Temp;Humidity;BMP_temperature;BMP_pressure;BME280_temperature;BME280_humidity;BME280_pressure;Samples;Min_cycle;Max_cycle;Signal;HPM_P1;HPM_P2
2022/07/16 00:02:44;;;;;;;7.93;5.17;;;21.30;11.20;;;;;;5048590;28;20233;-63
2022/07/16 00:05:12;;;;;;;7.30;3.80;;;21.30;11.90;;;;;;5048496;28;20410;-64
2022/07/16 00:07:38;;;;;;;12.23;4.73;;;21.20;11.50;;;;;;5047115;28;20189;-62
2022/07/16 00:10:05;;;;;;;5.13;4.30;;;21.20;12.20;;;;;;5047652;28;20890;-64
2022/07/16 00:12:30;;;;;;;6.50;4.57;;;21.20;12.50;;;;;;5047668;28;20199;-62
2022/07/16 00:14:56;;;;;;;5.67;4.37;;;21.20;12.70;;;;;;5048485;28;20410;-63
2022/07/16 00:17:22;;;;;;;6.80;4.27;;;21.00;12.60;;;;;;5047242;28;20528;-63
2022/07/16 00:19:47;;;;;;;8.33;5.20;;;21.00;13.10;;;;;;5047922;28;20237;-61
2022/07/16 00:22:13;;;;;;;7.27;4.10;;;21.00;14.00;;;;;;5048093;28;20171;-63
2022/07/16 00:24:39;;;;;;;5.13;4.63;;;21.10;14.70;;;;;;5047683;28;20174;-61
2022/07/16 00:27:05;;;;;;;9.60;5.03;;;21.20;14.90;;;;;;5047048;28;20175;-63
2022/07/16 00:29:30;;;;;;;5.13;4.63;;;21.20;15.90;;;;;;5047693;28;20175;-60
2022/07/16 00:31:56;;;;;;;6.47;5.00;;;21.40;16.00;;;;;;5048861;28;20190;-62
2022/07/16 00:34:22;;;;;;;5.80;4.23;;;21.40;15.70;;;;;;5051500;28;20186;-61
2022/07/16 00:36:49;;;;;;;8.00;4.53;;;21.40;16.20;;;;;;5051351;28;20666;-60
2022/07/16 00:39:16;;;;;;;4.63;3.80;;;21.40;16.00;;;;;;5050576;28;20414;-63
2022/07/16 00:41:44;;;;;;;9.17;4.20;;;21.30;16.00;;;;;;5051567;28;20397;-60
2022/07/16 00:44:12;;;;;;;7.53;4.23;;;21.30;16.20;;;;;;5051049;28;20846;-61
2022/07/16 00:46:39;;;;;;;6.43;3.90;;;21.30;16.50;;;;;;5051250;28;20401;-61
2022/07/16 00:49:06;;;;;;;8.20;4.40;;;21.30;16.40;;;;;;5050663;28;20597;-64
2022/07/16 00:51:33;;;;;;;5.10;4.30;;;21.20;16.60;;;;;;5051260;28;20424;-64
2022/07/16 00:53:59;;;;;;;5.23;4.00;;;21.20;17.20;;;;;;5050678;28;20437;-61
2022/07/16 00:56:25;;;;;;;4.63;4.23;;;21.20;17.30;;;;;;5050927;28;20425;-60
2022/07/16 00:58:52;;;;;;;9.80;3.80;;;21.00;17.20;;;;;;5049654;28;20217;-62
2022/07/16 01:01:19;;;;;;;8.23;4.83;;;21.10;17.50;;;;;;5051458;28;20409;-62
2022/07/16 01:03:45;;;;;;;8.53;4.93;;;21.10;18.00;;;;;;5050998;28;21124;-63
2022/07/16 01:06:14;;;;;;;5.10;4.23;;;21.10;18.00;;;;;;5051209;28;20429;-64
2022/07/16 01:08:42;;;;;;;6.73;4.70;;;21.00;18.00;;;;;;5049056;28;20402;-64
2022/07/16 01:11:11;;;;;;;7.93;4.97;;;20.70;17.90;;;;;;5062909;28;20417;-64
2022/07/16 01:13:39;;;;;;;7.40;4.73;;;20.80;18.80;;;;;;5070523;28;20461;-64
2022/07/16 01:16:06;;;;;;;5.40;4.67;;;20.70;19.10;;;;;;5070983;28;20415;-64
2022/07/16 01:18:31;;;;;;;5.20;4.70;;;20.80;19.90;;;;;;5069535;28;20397;-63
2022/07/16 01:20:58;;;;;;;10.23;5.13;;;20.90;20.10;;;;;;5070866;28;20405;-64
2022/07/16 01:23:25;;;;;;;5.50;4.50;;;20.90;20.10;;;;;;5069402;28;20237;-62
2022/07/16 01:25:52;;;;;;;5.17;4.70;;;20.70;20.10;;;;;;5070857;28;20408;-61
2022/07/16 01:28:18;;;;;;;5.17;4.77;;;20.70;21.40;;;;;;5069233;28;20409;-63
2022/07/16 01:30:45;;;;;;;5.40;4.90;;;20.80;21.30;;;;;;5069241;28;20411;-61
2022/07/16 01:33:20;;;;;;;11.30;5.47;;;20.80;21.60;;;;;;5049752;28;20496;-64
2022/07/16 01:35:46;;;;;;;7.43;5.63;;;20.90;22.30;;;;;;5049879;28;20425;-63
2022/07/16 01:38:12;;;;;;;8.00;5.30;;;20.80;21.70;;;;;;5048491;28;20793;-63
2022/07/16 01:40:37;;;;;;;6.93;5.30;;;20.70;22.00;;;;;;5050240;28;20163;-61
2022/07/16 01:43:03;;;;;;;5.83;4.90;;;20.70;22.50;;;;;;5059527;28;20194;-64
2022/07/16 01:45:29;;;;;;;4.47;4.07;;;20.60;23.20;;;;;;5070280;28;20839;-64
2022/07/16 01:47:54;;;;;;;6.30;4.77;;;20.70;23.20;;;;;;5069250;28;20170;-63
2022/07/16 01:50:20;;;;;;;5.43;4.43;;;20.70;23.50;;;;;;5069831;28;20607;-64
2022/07/16 01:52:46;;;;;;;5.33;4.53;;;20.70;23.50;;;;;;5069133;28;20660;-63
2022/07/16 01:55:11;;;;;;;4.90;4.40;;;20.60;23.90;;;;;;5066942;28;20167;-61
2022/07/16 01:57:37;;;;;;;7.60;4.97;;;20.60;23.70;;;;;;5031374;28;20218;-62
2022/07/16 02:00:04;;;;;;;6.90;4.70;;;20.60;34.60;;;;;;5049671;28;20639;-63
2022/07/16 02:02:30;;;;;;;5.87;4.73;;;20.50;23.50;;;;;;5049460;28;20255;-60
2022/07/16 02:04:55;;;;;;;16.23;5.60;;;20.10;23.40;;;;;;5049773;28;20850;-62
2022/07/16 02:07:21;;;;;;;7.43;5.00;;;19.90;23.60;;;;;;5049256;28;20273;-63
2022/07/16 02:09:47;;;;;;;6.43;5.00;;;20.00;24.70;;;;;;5049262;28;20186;-64
2022/07/16 02:12:12;;;;;;;7.17;5.13;;;19.90;25.50;;;;;;5049503;28;20202;-61
2022/07/16 02:14:38;;;;;;;12.60;5.17;;;20.10;25.40;;;;;;5049628;28;20252;-61
2022/07/16 02:17:04;;;;;;;7.53;4.60;;;20.20;25.90;;;;;;5048582;28;20167;-63
2022/07/16 02:19:29;;;;;;;5.23;4.73;;;20.30;26.30;;;;;;5049604;28;20260;-63
2022/07/16 02:21:55;;;;;;;4.80;4.40;;;20.30;37.60;;;;;;5049278;28;20220;-63
2022/07/16 02:24:21;;;;;;;5.83;4.30;;;20.30;26.60;;;;;;5049201;28;20629;-64
2022/07/16 02:26:47;;;;;;;8.83;5.60;;;20.30;26.80;;;;;;5049582;28;20182;-64
2022/07/16 02:29:12;;;;;;;12.13;5.00;;;20.10;26.40;;;;;;5048416;28;20335;-64
2022/07/16 02:31:39;;;;;;;6.50;5.33;;;20.00;26.60;;;;;;5049220;28;20548;-63
2022/07/16 02:34:05;;;;;;;6.60;4.97;;;20.00;26.90;;;;;;5049254;28;20187;-62
2022/07/16 02:36:31;;;;;;;8.17;5.20;;;19.70;27.10;;;;;;5049378;28;20417;-63
2022/07/16 02:38:57;;;;;;;10.70;4.90;;;19.50;27.20;;;;;;5047529;28;20244;-62
2022/07/16 02:41:22;;;;;;;8.07;5.40;;;19.50;27.70;;;;;;5049456;28;20588;-62
2022/07/16 02:43:48;;;;;;;42.20;8.20;;;19.60;28.30;;;;;;5065640;28;20205;-62
2022/07/16 02:46:14;;;;;;;7.03;4.50;;;19.80;29.20;;;;;;5069162;28;20179;-61
2022/07/16 02:48:39;;;;;;;4.20;3.80;;;19.80;29.30;;;;;;5067629;28;20229;-65
2022/07/16 02:51:06;;;;;;;6.40;4.97;;;19.80;29.80;;;;;;5068962;28;20170;-63
2022/07/16 02:53:31;;;;;;;4.63;4.20;;;19.90;29.90;;;;;;5067873;28;20237;-61
2022/07/16 02:55:57;;;;;;;26.60;6.23;;;19.80;30.00;;;;;;5058762;28;20444;-62
2022/07/16 02:58:23;;;;;;;23.37;5.47;;;19.80;30.30;;;;;;5047639;28;20209;-61
2022/07/16 03:00:49;;;;;;;7.30;4.93;;;19.70;29.90;;;;;;5049204;28;20655;-59
2022/07/16 03:03:15;;;;;;;22.37;6.00;;;19.60;30.30;;;;;;5047951;28;20191;-64
2022/07/16 03:05:41;;;;;;;19.23;5.40;;;19.60;30.60;;;;;;5048859;28;20412;-60
2022/07/16 03:08:07;;;;;;;11.93;5.10;;;19.30;30.00;;;;;;5047515;28;20555;-65
2022/07/16 03:10:32;;;;;;;14.10;5.07;;;19.20;30.10;;;;;;5030872;28;20191;-63
2022/07/16 03:12:58;;;;;;;9.20;5.67;;;19.10;30.90;;;;;;5047832;28;20961;-63
2022/07/16 03:15:24;;;;;;;14.73;5.77;;;19.20;31.70;;;;;;5049031;28;20194;-63
2022/07/16 03:17:49;;;;;;;15.73;5.07;;;19.30;31.70;;;;;;5047774;28;20163;-63
2022/07/16 03:20:15;;;;;;;16.50;6.37;;;19.40;32.20;;;;;;5048381;28;20168;-64
2022/07/16 03:22:45;;;;;;;10.57;5.60;;;19.40;32.30;;;;;;5048118;28;20190;-63
2022/07/16 03:25:12;;;;;;;11.17;5.27;;;19.40;32.70;;;;;;5048794;28;20596;-61
2022/07/16 03:27:37;;;;;;;17.33;5.70;;;19.50;33.00;;;;;;5047661;28;20417;-63
2022/07/16 03:30:03;;;;;;;17.33;6.13;;;19.60;33.30;;;;;;5048185;28;20413;-63
2022/07/16 03:32:29;;;;;;;41.37;6.87;;;19.30;33.10;;;;;;5029089;28;20286;-62
2022/07/16 03:34:55;;;;;;;53.33;11.10;;;19.00;33.00;;;;;;5048392;28;20408;-60
2022/07/16 03:37:21;;;;;;;40.10;7.80;;;19.10;33.90;;;;;;5047069;28;20876;-61
2022/07/16 03:39:46;;;;;;;8.13;5.00;;;19.00;34.00;;;;;;5047176;28;20265;-61
2022/07/16 03:42:12;;;;;;;15.10;5.90;;;19.10;34.60;;;;;;5051820;28;20170;-61
2022/07/16 03:44:38;;;;;;;46.30;8.87;;;19.30;35.30;;;;;;5068627;28;20270;-62
2022/07/16 03:47:04;;;;;;;27.77;7.23;;;19.20;35.20;;;;;;5067721;28;20257;-65
2022/07/16 03:49:29;;;;;;;22.63;7.27;;;19.30;35.40;;;;;;5066705;28;20269;-63
2022/07/16 03:51:55;;;;;;;12.90;5.20;;;19.20;36.20;;;;;;5068707;28;20204;-61
2022/07/16 03:54:21;;;;;;;27.53;8.73;;;19.40;36.30;;;;;;5091698;22;20605;-67
2022/07/16 03:56:46;;;;;;;22.17;6.33;;;19.70;35.90;;;;;;5069124;28;20225;-68
2022/07/16 03:59:13;;;;;;;18.80;6.00;;;19.40;36.20;;;;;;5068245;28;20170;-68
2022/07/16 04:01:39;;;;;;;9.73;4.80;;;19.40;35.90;;;;;;5068314;28;20231;-68
2022/07/16 04:04:05;;;;;;;15.60;5.60;;;19.30;35.50;;;;;;5069714;28;20432;-68
2022/07/16 04:06:31;;;;;;;13.33;5.17;;;19.60;36.60;;;;;;5070826;28;20496;-68
2022/07/16 04:08:57;;;;;;;12.17;6.00;;;19.80;37.20;;;;;;5071471;28;20174;-67
2022/07/16 04:11:22;;;;;;;13.80;5.80;;;19.90;36.90;;;;;;5072916;28;20182;-67
2022/07/16 04:13:48;;;;;;;16.00;6.33;;;20.10;37.90;;;;;;5072533;28;20202;-68
2022/07/16 04:16:14;;;;;;;39.83;8.37;;;20.10;37.50;;;;;;5055841;28;20796;-67
2022/07/16 04:18:40;;;;;;;22.27;6.73;;;20.30;37.10;;;;;;5071894;28;20637;-68
2022/07/16 04:21:06;;;;;;;26.63;7.17;;;20.40;36.50;;;;;;5073552;28;20216;-67
2022/07/16 04:23:33;;;;;;;31.40;8.30;;;20.50;36.80;;;;;;5071854;28;20205;-68
2022/07/16 04:25:58;;;;;;;48.30;9.93;;;20.50;36.50;;;;;;5072553;28;20412;-67
2022/07/16 04:28:24;;;;;;;31.23;8.67;;;20.40;35.60;;;;;;5071204;28;20462;-67
2022/07/16 04:30:50;;;;;;;20.43;6.63;;;20.20;35.30;;;;;;5072636;28;20338;-67
2022/07/16 04:33:16;;;;;;;29.20;7.60;;;20.30;35.30;;;;;;5071366;28;20198;-67
2022/07/16 04:35:42;;;;;;;25.53;6.47;;;20.60;35.80;;;;;;5073217;28;20202;-67
2022/07/16 04:38:08;;;;;;;15.70;5.67;;;20.80;35.20;;;;;;5070775;28;20484;-67
2022/07/16 04:40:33;;;;;;;16.30;6.70;;;21.00;34.40;;;;;;5071956;28;20481;-68
2022/07/16 04:42:59;;;;;;;33.87;7.80;;;21.00;34.30;;;;;;5081646;28;20184;-66
2022/07/16 04:45:25;;;;;;;38.57;9.23;;;20.90;33.50;;;;;;5073618;28;20170;-68
2022/07/16 04:47:51;;;;;;;87.60;13.20;;;20.70;32.40;;;;;;5083325;28;20265;-68
2022/07/16 04:50:16;;;;;;;38.83;7.63;;;20.70;31.80;;;;;;5035443;28;20174;-69
2022/07/16 04:52:42;;;;;;;39.00;8.00;;;20.80;32.00;;;;;;5053261;28;20194;-69
2022/07/16 04:55:09;;;;;;;13.87;5.03;;;20.80;31.50;;;;;;5064111;28;20213;-69
2022/07/16 04:57:34;;;;;;;14.77;5.30;;;21.00;31.70;;;;;;5064325;28;20170;-67
2022/07/16 05:00:00;;;;;;;38.90;8.10;;;21.00;30.60;;;;;;5055831;28;20513;-68
2022/07/16 05:05:10;;;;;;;18.37;6.60;;;21.10;30.20;;;;;;5054335;28;20588;-68
2022/07/16 05:07:37;;;;;;;21.53;7.23;;;21.30;30.20;;;;;;5052215;28;20414;-68
2022/07/16 05:10:03;;;;;;;63.37;9.50;;;21.50;30.50;;;;;;5054561;28;20174;-68
2022/07/16 05:12:29;;;;;;;16.80;7.67;;;21.60;30.00;;;;;;5053290;28;20592;-68
2022/07/16 05:14:55;;;;;;;12.83;5.60;;;21.60;29.10;;;;;;5053059;28;20524;-68
2022/07/16 05:17:20;;;;;;;14.20;5.80;;;21.70;28.70;;;;;;5052577;28;20198;-69
2022/07/16 05:19:46;;;;;;;49.23;8.63;;;21.60;28.60;;;;;;5053105;28;20167;-68
2022/07/16 05:22:12;;;;;;;33.87;7.50;;;21.80;28.10;;;;;;5054196;28;20191;-68
2022/07/16 05:24:37;;;;;;;69.00;11.20;;;21.80;27.80;;;;;;5053032;28;20291;-69
2022/07/16 05:27:04;;;;;;;35.30;7.10;;;21.80;27.10;;;;;;5053074;28;20167;-68
2022/07/16 05:29:29;;;;;;;24.43;7.67;;;21.90;26.70;;;;;;5053010;28;20175;-67
2022/07/16 05:31:55;;;;;;;37.03;7.93;;;22.00;26.60;;;;;;5053770;28;20507;-70
2022/07/16 05:34:21;;;;;;;35.57;7.97;;;22.00;25.70;;;;;;5054253;28;20540;-68
2022/07/16 05:36:46;;;;;;;60.50;9.33;;;22.20;25.80;;;;;;5052864;28;20174;-69
2022/07/16 05:39:12;;;;;;;40.43;8.60;;;22.30;25.40;;;;;;5034849;28;20171;-69
2022/07/16 05:41:38;;;;;;;56.97;8.10;;;22.50;25.00;;;;;;5052712;28;20254;-68
2022/07/16 05:44:04;;;;;;;34.70;7.60;;;22.60;24.70;;;;;;5056721;28;20191;-67
2022/07/16 05:46:29;;;;;;;41.70;8.13;;;22.90;25.30;;;;;;5056015;28;20618;-68
2022/07/16 05:48:55;;;;;;;11.30;6.50;;;23.00;24.40;;;;;;5065721;28;20174;-67
2022/07/16 05:51:21;;;;;;;13.10;6.60;;;23.00;23.80;;;;;;5056124;28;20263;-68
2022/07/16 05:53:46;;;;;;;63.73;10.87;;;23.10;23.50;;;;;;5051993;28;20195;-68
2022/07/16 05:56:12;;;;;;;28.97;6.83;;;23.20;22.80;;;;;;5055890;28;20477;-68
2022/07/16 05:58:38;;;;;;;79.40;10.13;;;23.30;22.30;;;;;;5052153;28;20738;-68
2022/07/16 06:01:04;;;;;;;20.30;5.80;;;23.40;22.10;;;;;;5080952;28;20184;-67
2022/07/16 06:03:29;;;;;;;47.93;7.90;;;23.60;21.50;;;;;;5080766;28;20209;-69
2022/07/16 06:05:55;;;;;;;45.03;8.80;;;23.70;21.50;;;;;;5059218;28;20193;-69
2022/07/16 06:08:21;;;;;;;87.70;11.87;;;23.80;20.80;;;;;;5059247;28;20174;-68
2022/07/16 06:10:46;;;;;;;46.20;7.80;;;23.90;30.90;;;;;;5067550;28;20175;-69
2022/07/16 06:13:12;;;;;;;15.13;6.27;;;24.10;20.30;;;;;;5055291;28;20203;-67
2022/07/16 06:15:38;;;;;;;34.60;6.60;;;24.30;19.90;;;;;;5053195;28;20226;-68
2022/07/16 06:18:04;;;;;;;6.73;4.67;;;24.40;19.20;;;;;;5033116;28;20272;-68
2022/07/16 06:20:29;;;;;;;8.23;4.60;;;23.90;17.00;;;;;;5054912;28;20197;-68
2022/07/16 06:22:57;;;;;;;21.30;5.40;;;24.10;17.60;;;;;;5051547;28;20190;-67
2022/07/16 06:25:23;;;;;;;7.93;4.60;;;23.90;16.10;;;;;;5052197;28;20486;-68
2022/07/16 06:27:49;;;;;;;5.80;3.23;;;23.50;15.10;;;;;;5050858;28;20178;-68
2022/07/16 06:30:15;;;;;;;4.43;3.77;;;23.30;14.20;;;;;;5050976;28;20467;-68
2022/07/16 06:32:41;;;;;;;4.53;4.10;;;23.40;24.80;;;;;;5062508;28;20637;-68
2022/07/16 06:35:08;;;;;;;6.53;4.23;;;23.20;13.60;;;;;;5059546;28;20561;-68
2022/07/16 06:37:33;;;;;;;7.97;4.53;;;23.20;14.30;;;;;;5050947;28;20504;-69
2022/07/16 06:39:59;;;;;;;7.73;4.10;;;23.40;14.00;;;;;;5050770;28;20429;-67
2022/07/16 06:42:25;;;;;;;36.17;8.30;;;23.50;14.20;;;;;;5056544;28;20174;-68
2022/07/16 06:44:50;;;;;;;12.80;4.90;;;23.90;13.90;;;;;;5051193;28;20207;-68
2022/07/16 06:47:16;;;;;;;7.10;4.53;;;23.70;12.90;;;;;;5051645;28;20538;-68
2022/07/16 06:49:42;;;;;;;8.30;4.03;;;23.50;12.00;;;;;;5063781;28;20178;-68
2022/07/16 06:52:07;;;;;;;13.60;5.20;;;23.50;11.60;;;;;;5064468;28;20653;-68
2022/07/16 06:54:33;;;;;;;51.63;7.57;;;23.40;11.00;;;;;;5064098;28;20210;-68
2022/07/16 06:56:59;;;;;;;30.77;5.90;;;23.50;11.00;;;;;;5062571;28;20242;-68
2022/07/16 06:59:25;;;;;;;104.30;12.80;;;24.00;12.20;;;;;;5054474;28;20205;-68
2022/07/16 07:01:50;;;;;;;63.50;7.43;;;24.50;11.80;;;;;;5049850;28;20187;-67
2022/07/16 07:04:16;;;;;;;29.70;4.90;;;24.50;10.80;;;;;;5048931;28;20627;-69
2022/07/16 07:06:42;;;;;;;37.47;5.63;;;24.80;10.70;;;;;;5047803;28;20170;-68
2022/07/16 07:09:07;;;;;;;40.17;6.03;;;25.20;10.20;;;;;;5047077;28;20517;-67
2022/07/16 07:11:34;;;;;;;6.17;3.93;;;25.70;10.10;;;;;;5049364;28;20705;-68
2022/07/16 07:13:59;;;;;;;5.83;3.93;;;25.00;8.20;;;;;;5029902;28;20225;-69
2022/07/16 07:16:25;;;;;;;11.30;4.27;;;25.20;8.20;;;;;;5060700;28;20409;-69
2022/07/16 07:18:51;;;;;;;11.83;4.43;;;25.20;7.20;;;;;;5059883;28;20170;-68
2022/07/16 07:21:17;;;;;;;10.17;4.80;;;24.70;5.50;;;;;;5066013;28;20204;-67
2022/07/16 07:23:43;;;;;;;5.80;3.80;;;24.50;4.70;;;;;;5064352;28;20544;-67
2022/07/16 07:26:08;;;;;;;13.23;5.03;;;24.50;5.10;;;;;;5065707;28;20181;-68
2022/07/16 07:28:34;;;;;;;24.87;5.60;;;25.00;4.90;;;;;;5063892;28;20227;-67
2022/07/16 07:31:00;;;;;;;45.50;7.60;;;25.60;4.70;;;;;;5064135;28;20186;-68
2022/07/16 07:33:26;;;;;;;19.70;5.50;;;25.80;3.90;;;;;;5065458;28;20754;-68
2022/07/16 07:35:53;;;;;;;30.13;6.53;;;26.00;2.50;;;;;;5066505;28;20166;-67
2022/07/16 07:38:18;;;;;;;62.20;8.53;;;26.30;1.80;;;;;;5065371;28;20169;-69
2022/07/16 07:40:44;;;;;;;57.50;7.90;;;26.50;1.40;;;;;;5067516;28;20412;-69
2022/07/16 07:43:10;;;;;;;13.13;4.70;;;26.60;1.00;;;;;;5064451;28;20273;-66
2022/07/16 07:45:36;;;;;;;10.27;4.33;;;26.60;1.00;;;;;;5054443;28;20213;-67
2022/07/16 07:48:01;;;;;;;20.67;4.60;;;25.30;1.00;;;;;;5054884;28;20173;-67
2022/07/16 07:50:27;;;;;;;10.37;4.23;;;25.20;1.00;;;;;;5053710;28;20170;-67
2022/07/16 07:52:53;;;;;;;17.77;4.87;;;25.70;1.00;;;;;;5058134;28;20190;-67
2022/07/16 07:55:20;;;;;;;8.10;4.03;;;26.10;1.00;;;;;;5064321;28;20422;-67
2022/07/16 07:57:46;;;;;;;4.30;3.90;;;26.00;1.00;;;;;;5061888;28;20170;-69
2022/07/16 08:00:12;;;;;;;5.43;3.57;;;24.70;1.00;;;;;;5068750;28;20420;-69
2022/07/16 08:02:43;;;;;;;14.77;5.23;;;25.00;1.00;;;;;;5062499;28;20167;-71
2022/07/16 08:05:09;;;;;;;10.50;4.80;;;25.50;1.00;;;;;;5053020;28;20244;-68
2022/07/16 08:07:35;;;;;;;8.60;4.50;;;25.40;1.00;;;;;;5051840;28;20463;-68
2022/07/16 08:10:01;;;;;;;57.80;9.23;;;25.60;1.00;;;;;;5052722;28;20781;-70
2022/07/16 08:12:27;;;;;;;100.70;11.93;;;25.90;1.00;;;;;;5053028;28;20260;-69
2022/07/16 08:14:53;;;;;;;11.03;5.17;;;26.20;1.00;;;;;;5036412;28;20441;-70
2022/07/16 08:17:19;;;;;;;11.40;4.83;;;26.50;1.00;;;;;;5066795;28;20220;-71
2022/07/16 08:19:45;;;;;;;7.53;4.07;;;26.20;1.00;;;;;;5048340;28;20935;-72
2022/07/16 08:22:11;;;;;;;53.87;7.10;;;26.60;1.00;;;;;;5037493;28;20202;-71
2022/07/16 08:27:21;;;;;;;14.80;5.20;;;26.40;1.00;;;;;;5067080;28;20266;-71
2022/07/16 08:29:47;;;;;;;7.73;4.60;;;26.70;1.00;;;;;;5068648;28;20484;-71
2022/07/16 08:32:13;;;;;;;8.13;4.77;;;26.40;1.00;;;;;;5059308;28;20268;-70
2022/07/16 08:34:39;;;;;;;50.97;8.03;;;25.60;1.00;;;;;;5057869;28;20186;-70
2022/07/16 08:37:07;;;;;;;17.53;5.60;;;26.20;1.00;;;;;;5055950;28;20288;-70
2022/07/16 08:39:33;;;;;;;10.80;4.70;;;26.80;1.00;;;;;;5053636;28;20975;-70
2022/07/16 08:41:59;;;;;;;39.43;7.20;;;26.70;1.00;;;;;;5067393;28;20416;-70
2022/07/16 08:44:26;;;;;;;29.17;5.70;;;27.10;1.00;;;;;;5054554;28;20325;-70
2022/07/16 08:46:53;;;;;;;68.57;9.70;;;27.20;1.00;;;;;;5035640;28;20462;-71
2022/07/16 08:49:20;;;;;;;23.97;6.53;;;27.40;1.00;;;;;;5057480;28;20416;-71
2022/07/16 08:51:48;;;;;;;20.43;6.00;;;27.50;1.00;;;;;;5053403;28;20413;-70
2022/07/16 08:54:21;;;;;;;25.10;5.50;;;27.70;1.00;;;;;;5036395;28;20490;-71
2022/07/16 08:56:48;;;;;;;5.73;4.10;;;27.70;1.00;;;;;;5064852;28;20943;-69
2022/07/16 08:59:14;;;;;;;19.60;5.77;;;27.30;1.00;;;;;;5066552;28;20456;-71
2022/07/16 09:01:41;;;;;;;4.87;3.80;;;27.00;1.00;;;;;;5067127;28;20442;-71
2022/07/16 09:04:07;;;;;;;22.17;6.30;;;27.00;1.00;;;;;;5067129;28;20436;-71
2022/07/16 09:06:33;;;;;;;27.83;6.77;;;26.70;1.00;;;;;;5068622;28;20489;-67
2022/07/16 09:08:59;;;;;;;41.20;7.83;;;27.00;1.00;;;;;;5065889;28;20183;-72
2022/07/16 09:11:31;;;;;;;8.00;3.97;;;27.20;1.00;;;;;;5067820;28;20403;-72
2022/07/16 09:14:16;;;;;;;102.60;12.23;;;27.00;1.00;;;;;;5066350;28;20456;-69
2022/07/16 09:16:50;;;;;;;38.80;7.23;;;26.60;1.00;;;;;;5053305;28;20932;-70
2022/07/16 09:19:19;;;;;;;22.93;4.80;;;26.90;1.00;;;;;;5061839;28;20439;-68
2022/07/16 09:22:05;;;;;;;44.40;8.20;;;27.40;1.00;;;;;;5065775;28;20951;-70
2022/07/16 09:24:40;;;;;;;22.23;4.93;;;27.70;1.00;;;;;;5063094;28;20426;-68
2022/07/16 09:27:16;;;;;;;13.17;4.43;;;27.70;1.00;;;;;;5080549;28;20444;-68
2022/07/16 09:29:45;;;;;;;14.30;5.13;;;27.60;1.00;;;;;;5076429;28;20437;-71
2022/07/16 09:32:32;;;;;;;15.70;4.20;;;27.60;1.00;;;;;;5070179;28;20447;-70
2022/07/16 09:35:11;;;;;;;61.40;8.53;;;27.50;1.00;;;;;;5053373;28;20947;-70
2022/07/16 09:37:54;;;;;;;49.93;7.40;;;27.60;1.00;;;;;;5050365;28;20401;-70
2022/07/16 09:40:47;;;;;;;17.40;5.53;;;27.70;1.00;;;;;;5050546;28;20397;-71
2022/07/16 09:43:13;;;;;;;13.23;5.00;;;28.00;1.00;;;;;;5059223;28;20802;-69
2022/07/16 09:45:40;;;;;;;5.33;3.20;;;27.90;1.00;;;;;;5066388;28;20423;-69
2022/07/16 09:48:26;;;;;;;10.60;4.33;;;27.40;1.00;;;;;;5089962;28;20411;-69
2022/07/16 09:50:54;;;;;;;12.10;3.93;;;27.50;1.00;;;;;;5080719;28;20408;-69
2022/07/16 09:53:23;;;;;;;6.67;3.90;;;27.50;1.00;;;;;;5073588;28;20967;-70
2022/07/16 09:55:58;;;;;;;79.83;9.60;;;27.70;1.00;;;;;;5077718;28;20493;-71
2022/07/16 09:58:24;;;;;;;18.73;5.30;;;27.80;1.00;;;;;;5067929;28;21117;-71
2022/07/16 10:00:50;;;;;;;18.83;4.87;;;27.80;1.00;;;;;;5069207;28;20416;-71
2022/07/16 10:03:16;;;;;;;16.07;4.40;;;28.00;1.00;;;;;;5073502;28;20460;-70
2022/07/16 10:05:42;;;;;;;4.90;3.80;;;28.00;1.00;;;;;;5055802;28;20447;-69
2022/07/16 10:08:08;;;;;;;4.13;3.47;;;27.80;1.00;;;;;;5058056;28;20210;-70
2022/07/16 10:10:34;;;;;;;5.03;4.00;;;27.40;1.00;;;;;;5052670;28;20428;-67
2022/07/16 10:13:00;;;;;;;5.40;3.90;;;26.70;1.00;;;;;;5055007;28;20198;-69
2022/07/16 10:15:26;;;;;;;29.33;6.23;;;26.90;1.00;;;;;;5063678;28;20196;-69
2022/07/16 10:17:52;;;;;;;18.10;4.93;;;27.30;1.00;;;;;;5063734;28;20188;-69
2022/07/16 10:20:19;;;;;;;14.33;4.63;;;27.40;1.00;;;;;;5050324;28;20408;-71
2022/07/16 10:22:47;;;;;;;6.70;2.90;;;27.30;1.00;;;;;;5050695;28;20503;-68
2022/07/16 10:25:22;;;;;;;7.23;3.83;;;27.00;1.00;;;;;;5062856;28;20531;-72
2022/07/16 10:27:49;;;;;;;6.57;3.53;;;26.50;1.00;;;;;;5053493;28;20427;-74
2022/07/16 10:30:19;;;;;;;22.00;5.77;;;26.00;1.00;;;;;;5062858;28;20436;-73
2022/07/16 10:33:03;;;;;;;10.30;4.07;;;26.10;1.00;;;;;;5061452;28;20460;-69
2022/07/16 10:35:30;;;;;;;23.23;4.47;;;26.50;1.00;;;;;;5068597;28;20956;-75
2022/07/16 10:38:08;;;;;;;15.23;3.97;;;27.00;1.00;;;;;;5061665;28;20408;-70
2022/07/16 10:40:38;;;;;;;14.03;4.50;;;27.30;1.00;;;;;;5062608;28;20918;-69
2022/07/16 10:43:10;;;;;;;10.93;4.17;;;27.40;1.00;;;;;;5065311;28;20412;-72
2022/07/16 10:46:03;;;;;;;24.10;5.70;;;27.60;1.00;;;;;;5065531;28;20415;-72
2022/07/16 10:48:49;;;;;;;8.97;4.20;;;27.40;1.00;;;;;;5062294;28;20520;-70
2022/07/16 10:51:22;;;;;;;5.40;4.53;;;27.30;1.00;;;;;;5061554;28;20427;-70
2022/07/16 10:53:57;;;;;;;7.07;4.97;;;27.40;1.00;;;;;;5052819;28;20480;-71
2022/07/16 10:56:40;;;;;;;15.53;4.50;;;27.40;1.00;;;;;;5053571;28;20432;-70
2022/07/16 10:59:08;;;;;;;18.03;6.10;;;27.30;1.00;;;;;;5056871;28;20570;-70
2022/07/16 11:01:42;;;;;;;7.70;4.30;;;27.50;1.00;;;;;;5065052;28;20473;-70
2022/07/16 11:04:09;;;;;;;6.63;4.27;;;27.40;1.00;;;;;;5064738;28;20442;-70
2022/07/16 11:06:36;;;;;;;5.53;3.57;;;27.40;1.00;;;;;;5065949;28;20427;-72
2022/07/16 11:09:05;;;;;;;7.23;3.70;;;27.10;1.00;;;;;;5068578;28;20745;-70
2022/07/16 11:11:35;;;;;;;4.93;3.57;;;27.10;1.00;;;;;;5066684;28;20439;-69
2022/07/16 11:14:02;;;;;;;4.80;3.70;;;26.70;1.00;;;;;;5061926;28;20463;-72
2022/07/16 11:16:28;;;;;;;4.70;3.70;;;26.30;1.00;;;;;;5061667;28;20432;-69
2022/07/16 11:18:54;;;;;;;7.70;3.80;;;25.60;1.00;;;;;;5057717;28;20416;-70
2022/07/16 11:21:19;;;;;;;7.53;3.87;;;25.60;1.00;;;;;;5059075;28;20408;-73
2022/07/16 11:23:54;;;;;;;10.07;4.00;;;25.70;1.00;;;;;;5050523;28;20194;-69
2022/07/16 11:26:21;;;;;;;12.17;4.53;;;26.10;1.00;;;;;;5060348;28;20226;-70
2022/07/16 11:28:59;;;;;;;8.77;3.83;;;26.40;1.00;;;;;;5056069;28;20575;-68
2022/07/16 11:31:26;;;;;;;10.87;4.10;;;26.40;1.00;;;;;;5055386;28;20420;-68
2022/07/16 11:33:56;;;;;;;6.40;3.90;;;26.70;1.00;;;;;;5050056;28;20472;-69
2022/07/16 11:36:26;;;;;;;4.00;3.60;;;26.30;1.00;;;;;;5053001;28;20412;-69
2022/07/16 11:39:17;;;;;;;12.27;4.33;;;26.30;1.00;;;;;;5064293;28;20422;-71
2022/07/16 11:41:45;;;;;;;4.93;3.73;;;26.50;1.00;;;;;;5063840;28;20442;-70
2022/07/16 11:44:20;;;;;;;10.03;4.40;;;26.70;1.00;;;;;;5050382;28;20937;-71
2022/07/16 11:46:47;;;;;;;14.40;4.90;;;27.00;1.00;;;;;;5056085;28;20421;-73
2022/07/16 11:49:25;;;;;;;4.10;3.70;;;27.10;1.00;;;;;;5050789;28;20453;-70
2022/07/16 11:51:51;;;;;;;22.87;5.97;;;26.60;1.00;;;;;;5050182;28;20435;-73
2022/07/16 11:54:17;;;;;;;13.73;4.40;;;26.60;1.00;;;;;;5060614;28;20508;-70
2022/07/16 11:56:43;;;;;;;4.20;3.40;;;26.40;1.00;;;;;;5056039;28;20425;-72
2022/07/16 11:59:30;;;;;;;15.20;4.20;;;26.30;1.00;;;;;;5049476;28;20177;-70
2022/07/16 12:02:06;;;;;;;9.50;4.20;;;26.30;1.00;;;;;;5050061;28;20181;-70
2022/07/16 12:04:34;;;;;;;20.00;4.77;;;26.20;1.00;;;;;;5051379;28;20431;-69
2022/07/16 12:07:01;;;;;;;6.87;3.67;;;26.50;1.00;;;;;;5048378;28;20523;-71
2022/07/16 12:09:32;;;;;;;15.43;5.17;;;26.70;1.00;;;;;;5056991;28;20925;-72
2022/07/16 12:12:04;;;;;;;21.43;5.00;;;26.90;1.00;;;;;;5062017;28;20416;-71
2022/07/16 12:14:51;;;;;;;12.13;4.20;;;26.70;1.00;;;;;;5063299;28;20524;-69
2022/07/16 12:17:20;;;;;;;6.00;4.07;;;26.70;1.00;;;;;;5053952;28;20431;-72
2022/07/16 12:20:17;;;;;;;4.30;3.53;;;26.60;1.00;;;;;;5046683;28;20425;-70
2022/07/16 12:23:06;;;;;;;6.33;3.37;;;26.30;1.00;;;;;;5048554;28;20435;-68
2022/07/16 12:25:34;;;;;;;14.00;4.53;;;26.10;1.00;;;;;;5060237;28;20448;-71
2022/07/16 12:28:11;;;;;;;12.63;4.73;;;26.30;1.00;;;;;;5058936;28;20423;-76
2022/07/16 12:30:49;;;;;;;8.77;4.17;;;26.60;1.00;;;;;;5066910;28;20590;-70
2022/07/16 12:33:15;;;;;;;10.67;3.97;;;26.80;1.00;;;;;;5055278;28;20444;-71
2022/07/16 12:35:47;;;;;;;12.83;4.60;;;26.90;1.00;;;;;;5065293;28;20457;-72
2022/07/16 12:38:52;;;;;;;14.60;4.80;;;27.10;1.00;;;;;;5058069;28;20173;-70
2022/07/16 12:41:18;;;;;;;12.50;3.80;;;27.10;1.00;;;;;;5053369;28;20427;-72
2022/07/16 12:43:48;;;;;;;27.90;5.50;;;26.70;1.00;;;;;;5064356;28;20474;-72
2022/07/16 12:46:14;;;;;;;11.53;4.50;;;26.60;1.00;;;;;;5055959;28;20250;-72
2022/07/16 12:48:50;;;;;;;5.87;3.80;;;26.70;1.00;;;;;;5036929;28;20533;-72
2022/07/16 12:51:19;;;;;;;10.57;3.93;;;26.90;1.00;;;;;;5066602;28;20416;-70
2022/07/16 12:53:46;;;;;;;4.90;2.80;;;27.10;1.00;;;;;;5051789;28;20484;-69
2022/07/16 12:58:57;;;;;;;7.23;3.30;;;26.70;1.00;;;;;;5051770;28;20786;-72